createdAt,value
2023-04-30T00:00:53.943Z,11.39
2023-04-30T00:03:28.516Z,11.21
2023-04-30T00:05:56.417Z,11.40
2023-04-30T00:08:27.089Z,11.26
2023-04-30T00:10:54.824Z,11.31
2023-04-30T00:13:24.155Z,11.27
2023-04-30T00:15:54.637Z,11.25
2023-04-30T00:18:27.688Z,11.27
2023-04-30T00:20:57.426Z,11.21
2023-04-30T00:23:28.404Z,11.25
2023-04-30T00:25:56.414Z,11.20
2023-04-30T00:28:25.673Z,11.23
2023-04-30T00:30:53.694Z,11.24
2023-04-30T00:33:21.724Z,11.24
2023-04-30T00:35:49.425Z,11.21
2023-04-30T00:38:17.660Z,11.12
2023-04-30T00:40:46.557Z,11.16
2023-04-30T00:43:14.552Z,11.07
2023-04-30T00:45:44.381Z,11.09
2023-04-30T00:48:18.908Z,11.05
2023-04-30T00:50:46.766Z,11.04
2023-04-30T00:53:17.005Z,11.01
2023-04-30T00:55:53.043Z,11.03
2023-04-30T00:58:21.335Z,11.02
2023-04-30T01:00:51.908Z,10.96
2023-04-30T01:03:24.205Z,10.92
2023-04-30T01:05:53.783Z,10.94
2023-04-30T01:08:23.697Z,10.88
2023-04-30T01:10:57.331Z,10.96
2023-04-30T01:13:31.524Z,10.92
2023-04-30T01:16:10.715Z,10.94
2023-04-30T01:18:45.075Z,10.85
2023-04-30T01:21:16.494Z,10.74
2023-04-30T01:24:20.177Z,10.77
2023-04-30T01:27:07.643Z,10.86
2023-04-30T01:29:39.061Z,10.81
2023-04-30T01:32:06.890Z,10.79
2023-04-30T01:34:34.763Z,10.77
2023-04-30T01:37:17.390Z,10.75
2023-04-30T01:40:09.701Z,10.75
2023-04-30T01:42:43.263Z,10.74
2023-04-30T01:45:24.086Z,10.70
2023-04-30T01:47:58.043Z,10.65
2023-04-30T01:50:33.031Z,10.66
2023-04-30T01:53:03.222Z,10.61
2023-04-30T01:55:37.043Z,10.63
2023-04-30T01:58:07.980Z,10.62
2023-04-30T02:00:37.175Z,10.62
2023-04-30T02:03:05.222Z,10.57
2023-04-30T02:05:33.103Z,10.53
2023-04-30T02:08:01.426Z,10.55
2023-04-30T02:10:30.692Z,10.50
2023-04-30T02:12:58.598Z,10.51
2023-04-30T02:15:27.353Z,10.49
2023-04-30T02:17:56.552Z,10.52
2023-04-30T02:20:24.375Z,10.46
2023-04-30T02:22:52.279Z,10.40
2023-04-30T02:25:20.032Z,10.45
2023-04-30T02:27:47.913Z,10.43
2023-04-30T02:30:15.738Z,10.42
2023-04-30T02:32:43.686Z,10.29
2023-04-30T02:35:13.004Z,10.35
2023-04-30T02:37:40.892Z,10.25
2023-04-30T02:40:10.396Z,10.28
2023-04-30T02:42:38.572Z,10.26
2023-04-30T02:45:07.392Z,10.23
2023-04-30T02:47:35.205Z,10.26
2023-04-30T02:50:04.016Z,10.27
2023-04-30T02:52:33.344Z,10.19
2023-04-30T02:55:01.192Z,10.19
2023-04-30T02:57:28.998Z,10.13
2023-04-30T02:59:57.243Z,10.15
2023-04-30T03:02:25.634Z,10.21
2023-04-30T03:04:53.636Z,10.19
2023-04-30T03:07:22.050Z,10.14
2023-04-30T03:09:51.385Z,9.98
2023-04-30T03:12:19.174Z,10.04
2023-04-30T03:14:46.899Z,10.08
2023-04-30T03:17:14.914Z,10.11
2023-04-30T03:19:42.832Z,10.07
2023-04-30T03:22:11.704Z,10.05
2023-04-30T03:24:39.507Z,9.99
2023-04-30T03:27:10.040Z,9.98
2023-04-30T03:29:37.916Z,9.94
2023-04-30T03:32:08.123Z,10.02
2023-04-30T03:34:35.982Z,10.03
2023-04-30T03:37:03.871Z,10.03
2023-04-30T03:39:31.658Z,9.99
2023-04-30T03:41:59.420Z,10.00
2023-04-30T03:44:28.785Z,9.94
2023-04-30T03:46:56.585Z,9.92
2023-04-30T03:49:24.269Z,9.86
2023-04-30T03:51:52.108Z,9.85
2023-04-30T03:54:19.902Z,9.79
2023-04-30T03:56:48.001Z,9.85
2023-04-30T03:59:15.822Z,9.92
2023-04-30T04:01:45.040Z,9.88
2023-04-30T04:04:13.317Z,9.82
2023-04-30T04:06:41.226Z,9.86
2023-04-30T04:09:09.092Z,9.91
2023-04-30T04:11:36.832Z,9.88
2023-04-30T04:14:04.608Z,9.83
2023-04-30T04:16:32.659Z,9.82
2023-04-30T04:19:02.007Z,9.85
2023-04-30T04:21:30.278Z,9.83
2023-04-30T04:23:58.820Z,9.86
2023-04-30T04:26:29.159Z,9.86
2023-04-30T04:28:57.020Z,9.93
2023-04-30T04:31:25.089Z,9.96
2023-04-30T04:33:58.128Z,9.93
2023-04-30T04:36:28.708Z,9.86
2023-04-30T04:38:57.767Z,9.91
2023-04-30T04:41:26.631Z,9.96
2023-04-30T04:43:54.437Z,9.96
2023-04-30T04:46:22.566Z,9.94
2023-04-30T04:48:53.067Z,9.95
2023-04-30T04:51:20.937Z,9.88
2023-04-30T04:53:51.010Z,9.97
2023-04-30T04:56:19.684Z,10.00
2023-04-30T04:58:48.345Z,10.05
2023-04-30T05:01:16.527Z,9.99
2023-04-30T05:03:47.541Z,10.00
2023-04-30T05:06:15.719Z,9.90
2023-04-30T05:08:43.653Z,10.07
2023-04-30T05:11:14.210Z,10.03
2023-04-30T05:13:43.345Z,10.05
2023-04-30T05:16:11.359Z,10.06
2023-04-30T05:18:39.247Z,10.14
2023-04-30T05:21:07.123Z,10.14
2023-04-30T05:23:34.952Z,10.14
2023-04-30T05:26:03.242Z,9.99
2023-04-30T05:28:32.382Z,10.16
2023-04-30T05:31:00.140Z,10.20
2023-04-30T05:33:27.894Z,10.23
2023-04-30T05:35:55.683Z,10.28
2023-04-30T05:38:23.965Z,10.31
2023-04-30T05:40:51.676Z,10.30
2023-04-30T05:43:20.609Z,10.29
2023-04-30T05:45:49.842Z,10.22
2023-04-30T05:48:17.774Z,10.40
2023-04-30T05:50:45.620Z,10.40
2023-04-30T05:53:14.402Z,10.43
2023-04-30T05:55:42.272Z,10.46
2023-04-30T05:58:10.003Z,10.49
2023-04-30T06:00:39.032Z,10.52
2023-04-30T06:03:08.819Z,10.57
2023-04-30T06:05:36.805Z,10.63
2023-04-30T06:08:04.720Z,10.69
2023-04-30T06:10:32.858Z,10.61
2023-04-30T06:13:00.622Z,10.77
2023-04-30T06:15:28.564Z,10.81
2023-04-30T06:17:56.344Z,10.81
2023-04-30T06:20:27.269Z,10.86
2023-04-30T06:22:55.149Z,10.91
2023-04-30T06:25:23.081Z,10.93
2023-04-30T06:27:51.618Z,10.97
2023-04-30T06:30:22.158Z,10.98
2023-04-30T06:32:49.923Z,11.00
2023-04-30T06:35:17.691Z,11.00
2023-04-30T06:37:47.019Z,11.02
2023-04-30T06:40:15.079Z,11.08
2023-04-30T06:42:42.819Z,11.11
2023-04-30T06:45:12.356Z,11.17
2023-04-30T06:47:42.596Z,11.15
2023-04-30T06:50:11.106Z,11.17
2023-04-30T06:52:39.257Z,11.22
2023-04-30T06:55:09.458Z,11.20
2023-04-30T06:57:37.801Z,11.27
2023-04-30T07:00:06.454Z,11.37
2023-04-30T07:02:34.357Z,11.44
2023-04-30T07:05:02.186Z,11.48
2023-04-30T07:07:29.927Z,11.50
2023-04-30T07:09:57.938Z,11.56
2023-04-30T07:12:27.375Z,11.61
2023-04-30T07:14:57.474Z,11.62
2023-04-30T07:17:27.616Z,11.67
2023-04-30T07:19:58.742Z,11.73
2023-04-30T07:22:29.377Z,11.75
2023-04-30T07:24:57.092Z,11.70
2023-04-30T07:27:25.248Z,11.82
2023-04-30T07:29:56.605Z,11.89
2023-04-30T07:32:27.071Z,11.95
2023-04-30T07:34:59.847Z,12.04
2023-04-30T07:37:27.821Z,12.11
2023-04-30T07:39:55.783Z,12.11
2023-04-30T07:42:23.882Z,12.20
2023-04-30T07:44:59.188Z,12.24
2023-04-30T07:47:27.153Z,12.29
2023-04-30T07:49:55.126Z,12.32
2023-04-30T07:52:23.068Z,12.38
2023-04-30T07:54:50.956Z,12.37
2023-04-30T07:57:18.704Z,12.35
2023-04-30T07:59:46.463Z,12.36
2023-04-30T08:02:15.695Z,12.40
2023-04-30T08:04:43.419Z,12.47
2023-04-30T08:07:11.260Z,12.45
2023-04-30T08:09:38.981Z,12.50
2023-04-30T08:12:07.048Z,12.54
2023-04-30T08:14:35.788Z,12.60
2023-04-30T08:17:03.622Z,12.62
2023-04-30T08:19:32.732Z,12.76
2023-04-30T08:22:01.065Z,12.76
2023-04-30T08:24:28.809Z,12.83
2023-04-30T08:26:56.639Z,12.86
2023-04-30T08:29:24.418Z,12.95
2023-04-30T08:31:52.345Z,12.92
2023-04-30T08:34:20.069Z,12.97
2023-04-30T08:36:49.131Z,13.04
2023-04-30T08:39:16.901Z,12.96
2023-04-30T08:41:47.721Z,13.08
2023-04-30T08:44:15.430Z,13.07
2023-04-30T08:46:44.653Z,13.13
2023-04-30T08:49:12.520Z,13.19
2023-04-30T08:51:41.077Z,13.25
2023-04-30T08:54:13.769Z,13.21
2023-04-30T08:56:42.052Z,13.37
2023-04-30T08:59:10.100Z,13.37
2023-04-30T09:01:38.111Z,13.51
2023-04-30T09:04:06.895Z,13.55
2023-04-30T09:06:34.715Z,13.57
2023-04-30T09:09:12.829Z,13.66
2023-04-30T09:11:43.702Z,13.67
2023-04-30T09:14:11.464Z,13.66
2023-04-30T09:16:49.967Z,13.72
2023-04-30T09:19:25.792Z,13.69
2023-04-30T09:21:53.734Z,13.76
2023-04-30T09:24:23.659Z,13.81
2023-04-30T09:26:52.354Z,13.85
2023-04-30T09:29:20.282Z,13.93
2023-04-30T09:31:48.690Z,13.93
2023-04-30T09:34:16.650Z,13.93
2023-04-30T09:36:55.141Z,13.97
2023-04-30T09:39:25.629Z,14.07
2023-04-30T09:41:53.421Z,14.09
2023-04-30T09:44:29.131Z,14.16
2023-04-30T09:46:58.508Z,14.28
2023-04-30T09:49:27.325Z,14.45
2023-04-30T09:51:57.141Z,14.50
2023-04-30T09:54:28.794Z,14.54
2023-04-30T09:56:59.076Z,14.56
2023-04-30T09:59:32.016Z,14.57
2023-04-30T10:02:02.050Z,14.65
2023-04-30T10:04:33.333Z,14.69
2023-04-30T10:07:05.071Z,14.98
2023-04-30T10:09:41.986Z,15.03
2023-04-30T10:12:15.781Z,15.06
2023-04-30T10:14:49.591Z,15.03
2023-04-30T10:17:18.988Z,14.95
2023-04-30T10:19:49.600Z,15.03
2023-04-30T10:22:17.695Z,15.19
2023-04-30T10:24:47.098Z,15.35
2023-04-30T10:27:15.176Z,15.39
2023-04-30T10:29:43.920Z,15.33
2023-04-30T10:32:14.017Z,15.36
2023-04-30T10:34:54.268Z,15.43
2023-04-30T10:37:29.548Z,15.43
2023-04-30T10:39:58.853Z,15.60
2023-04-30T10:42:26.787Z,15.97
2023-04-30T10:44:54.576Z,16.67
2023-04-30T10:47:30.089Z,16.97
2023-04-30T10:50:04.229Z,16.57
2023-04-30T10:52:32.173Z,16.82
2023-04-30T10:55:05.993Z,17.59
2023-04-30T10:57:41.359Z,17.93
2023-04-30T11:00:25.707Z,17.29
2023-04-30T11:02:58.118Z,17.10
2023-04-30T11:05:38.833Z,17.44
2023-04-30T11:08:07.319Z,17.72
2023-04-30T11:10:36.855Z,17.40
2023-04-30T11:13:06.789Z,17.18
2023-04-30T11:15:40.608Z,17.01
2023-04-30T11:18:09.488Z,16.97
2023-04-30T11:20:41.246Z,17.39
2023-04-30T11:23:10.088Z,17.44
2023-04-30T11:25:43.676Z,17.23
2023-04-30T11:28:16.430Z,17.31
2023-04-30T11:30:52.188Z,17.09
2023-04-30T11:33:20.823Z,17.43
2023-04-30T11:35:52.063Z,18.07
2023-04-30T11:38:22.618Z,18.27
2023-04-30T11:40:52.223Z,19.12
2023-04-30T11:43:24.336Z,19.57
2023-04-30T11:46:08.324Z,20.33
2023-04-30T11:48:37.594Z,20.32
2023-04-30T11:51:07.393Z,20.16
2023-04-30T11:53:35.440Z,20.07
2023-04-30T11:56:06.405Z,20.50
2023-04-30T11:58:39.285Z,21.25
2023-04-30T12:01:09.504Z,21.59
2023-04-30T12:03:43.859Z,21.92
2023-04-30T12:06:13.052Z,22.24
2023-04-30T12:08:44.675Z,22.46
2023-04-30T12:11:25.759Z,22.68
2023-04-30T12:13:58.448Z,22.69
2023-04-30T12:16:26.555Z,22.24
2023-04-30T12:18:54.394Z,21.94
2023-04-30T12:21:23.410Z,21.64
2023-04-30T12:23:51.545Z,22.29
2023-04-30T12:26:37.132Z,22.86
2023-04-30T12:29:06.033Z,23.36
2023-04-30T12:31:34.655Z,22.89
2023-04-30T12:34:06.851Z,21.79
2023-04-30T12:36:36.792Z,21.81
2023-04-30T12:39:08.730Z,20.98
2023-04-30T12:41:45.929Z,20.47
2023-04-30T12:44:21.369Z,20.33
2023-04-30T12:46:50.404Z,21.03
2023-04-30T12:49:25.756Z,20.59
2023-04-30T12:51:57.728Z,20.15
2023-04-30T12:54:29.895Z,19.73
2023-04-30T12:57:01.965Z,20.68
2023-04-30T12:59:30.177Z,20.44
2023-04-30T13:02:07.453Z,20.95
2023-04-30T13:04:35.998Z,20.31
2023-04-30T13:07:04.679Z,19.90
2023-04-30T13:09:32.867Z,19.67
2023-04-30T13:12:02.279Z,19.51
2023-04-30T13:14:30.344Z,19.54
2023-04-30T13:16:58.060Z,21.19
2023-04-30T13:19:26.397Z,22.26
2023-04-30T13:21:54.162Z,21.96
2023-04-30T13:24:21.989Z,21.04
2023-04-30T13:26:50.127Z,20.49
2023-04-30T13:29:20.775Z,20.42
2023-04-30T13:31:49.292Z,22.05
2023-04-30T13:34:17.352Z,22.87
2023-04-30T13:36:46.800Z,23.34
2023-04-30T13:39:14.865Z,22.84
2023-04-30T13:41:42.746Z,21.89
2023-04-30T13:44:10.522Z,21.25
2023-04-30T13:46:42.273Z,21.65
2023-04-30T13:49:10.136Z,22.52
2023-04-30T13:51:38.107Z,23.09
2023-04-30T13:54:05.861Z,23.15
2023-04-30T13:56:33.697Z,23.04
2023-04-30T13:59:01.508Z,23.02
2023-04-30T14:01:29.502Z,22.62
2023-04-30T14:03:58.967Z,22.36
2023-04-30T14:06:26.875Z,21.84
2023-04-30T14:08:54.626Z,21.39
2023-04-30T14:11:22.522Z,21.04
2023-04-30T14:13:50.394Z,20.84
2023-04-30T14:16:19.485Z,20.87
2023-04-30T14:18:47.495Z,21.23
2023-04-30T14:21:16.650Z,21.19
2023-04-30T14:23:46.542Z,21.34
2023-04-30T14:26:14.430Z,21.14
2023-04-30T14:28:42.187Z,20.86
2023-04-30T14:31:10.591Z,20.69
2023-04-30T14:33:38.456Z,20.50
2023-04-30T14:36:07.565Z,20.36
2023-04-30T14:38:36.710Z,20.32
2023-04-30T14:41:04.541Z,20.29
2023-04-30T14:43:32.287Z,20.46
2023-04-30T14:46:00.107Z,20.38
2023-04-30T14:48:28.081Z,20.54
2023-04-30T14:50:55.834Z,20.45
2023-04-30T14:53:23.650Z,20.31
2023-04-30T14:55:52.929Z,20.70
2023-04-30T14:58:21.151Z,21.17
2023-04-30T15:00:49.306Z,21.44
2023-04-30T15:03:17.691Z,21.62
2023-04-30T15:05:46.145Z,21.57
2023-04-30T15:08:14.110Z,21.63
2023-04-30T15:10:41.940Z,21.63
2023-04-30T15:13:14.216Z,21.32
2023-04-30T15:15:42.243Z,20.99
2023-04-30T15:18:10.659Z,20.74
2023-04-30T15:20:38.595Z,20.36
2023-04-30T15:23:06.658Z,20.16
2023-04-30T15:25:34.669Z,20.00
2023-04-30T15:28:03.170Z,19.84
2023-04-30T15:30:32.349Z,19.66
2023-04-30T15:33:00.188Z,19.49
2023-04-30T15:35:34.234Z,19.39
2023-04-30T15:38:01.987Z,19.27
2023-04-30T15:40:29.670Z,19.23
2023-04-30T15:42:57.533Z,19.22
2023-04-30T15:45:27.445Z,19.18
2023-04-30T15:47:56.751Z,19.16
2023-04-30T15:50:24.636Z,19.22
2023-04-30T15:52:52.433Z,19.55
2023-04-30T15:55:20.284Z,19.92
2023-04-30T15:57:48.246Z,20.17
2023-04-30T16:00:16.873Z,20.32
2023-04-30T16:02:44.715Z,20.35
2023-04-30T16:05:13.907Z,20.35
2023-04-30T16:07:43.897Z,20.24
2023-04-30T16:10:12.496Z,20.14
2023-04-30T16:12:40.394Z,20.01
2023-04-30T16:15:10.084Z,19.84
2023-04-30T16:17:38.040Z,19.73
2023-04-30T16:20:07.213Z,19.63
2023-04-30T16:22:39.208Z,19.38
2023-04-30T16:25:09.888Z,19.43
2023-04-30T16:27:37.718Z,19.31
2023-04-30T16:30:06.599Z,19.27
2023-04-30T16:32:34.618Z,19.22
2023-04-30T16:35:02.502Z,19.19
2023-04-30T16:37:31.077Z,19.11
2023-04-30T16:40:01.467Z,19.04
2023-04-30T16:42:29.983Z,18.98
2023-04-30T16:44:57.984Z,18.90
2023-04-30T16:47:25.657Z,18.91
2023-04-30T16:49:53.863Z,18.86
2023-04-30T16:52:21.776Z,18.80
2023-04-30T16:54:49.673Z,18.78
2023-04-30T16:57:18.809Z,18.70
2023-04-30T16:59:46.767Z,18.76
2023-04-30T17:02:14.608Z,18.74
2023-04-30T17:04:42.489Z,18.84
2023-04-30T17:07:10.284Z,18.86
2023-04-30T17:09:38.671Z,18.85
2023-04-30T17:12:07.943Z,18.82
2023-04-30T17:14:37.293Z,18.84
2023-04-30T17:17:05.095Z,18.80
2023-04-30T17:19:32.869Z,18.75
2023-04-30T17:22:01.457Z,18.72
2023-04-30T17:24:29.277Z,18.69
2023-04-30T17:27:00.943Z,18.66
2023-04-30T17:29:28.666Z,18.66
2023-04-30T17:31:57.875Z,18.62
2023-04-30T17:34:27.235Z,18.53
2023-04-30T17:36:54.997Z,18.51
2023-04-30T17:39:22.765Z,18.44
2023-04-30T17:41:50.559Z,18.35
2023-04-30T17:44:19.393Z,18.25
2023-04-30T17:46:47.326Z,18.21
2023-04-30T17:49:16.551Z,18.13
2023-04-30T17:51:44.338Z,18.07
2023-04-30T17:54:12.122Z,18.01
2023-04-30T17:56:40.385Z,17.97
2023-04-30T17:59:32.859Z,17.82
2023-04-30T18:02:02.800Z,17.84
2023-04-30T18:04:35.058Z,17.81
2023-04-30T18:07:02.814Z,17.73
2023-04-30T18:09:32.197Z,17.70
2023-04-30T18:12:00.247Z,17.66
2023-04-30T18:14:28.270Z,17.56
2023-04-30T18:16:56.170Z,17.54
2023-04-30T18:19:23.972Z,17.47
2023-04-30T18:21:55.820Z,17.41
2023-04-30T18:24:27.700Z,17.35
2023-04-30T18:26:55.856Z,17.28
2023-04-30T18:29:27.135Z,17.22
2023-04-30T18:31:54.929Z,17.22
2023-04-30T18:34:23.073Z,17.17
2023-04-30T18:36:50.877Z,17.11
2023-04-30T18:39:20.144Z,17.03
2023-04-30T18:41:47.823Z,16.96
2023-04-30T18:44:15.807Z,16.91
2023-04-30T18:46:43.535Z,16.86
2023-04-30T18:49:11.437Z,16.81
2023-04-30T18:51:39.172Z,16.75
2023-04-30T18:54:06.971Z,16.73
2023-04-30T18:56:36.940Z,16.66
2023-04-30T18:59:04.902Z,16.63
2023-04-30T19:01:32.708Z,16.61
2023-04-30T19:04:01.357Z,16.56
2023-04-30T19:06:29.143Z,16.47
2023-04-30T19:08:58.728Z,16.45
2023-04-30T19:11:27.148Z,16.42
2023-04-30T19:13:56.265Z,16.40
2023-04-30T19:16:25.071Z,16.32
2023-04-30T19:18:52.792Z,16.33
2023-04-30T19:21:20.654Z,16.28
2023-04-30T19:23:48.505Z,16.19
2023-04-30T19:26:16.377Z,16.21
2023-04-30T19:28:44.305Z,16.17
2023-04-30T19:31:13.542Z,16.12
2023-04-30T19:33:42.917Z,16.09
2023-04-30T19:36:10.794Z,16.06
2023-04-30T19:38:38.782Z,16.07
2023-04-30T19:41:07.296Z,16.05
2023-04-30T19:43:35.040Z,16.03
2023-04-30T19:46:03.407Z,15.96
2023-04-30T19:48:32.530Z,15.97
2023-04-30T19:51:03.347Z,15.91
2023-04-30T19:53:31.457Z,15.89
2023-04-30T19:55:59.812Z,15.86
2023-04-30T19:58:27.600Z,15.84
2023-04-30T20:00:55.929Z,15.83
2023-04-30T20:03:25.167Z,15.80
2023-04-30T20:05:54.500Z,15.76
2023-04-30T20:08:23.009Z,15.58
2023-04-30T20:10:51.230Z,15.71
2023-04-30T20:13:20.901Z,15.67
2023-04-30T20:16:06.145Z,15.59
2023-04-30T20:18:37.139Z,15.57
2023-04-30T20:21:06.299Z,15.55
2023-04-30T20:23:34.246Z,15.55
2023-04-30T20:26:02.686Z,15.50
2023-04-30T20:28:31.080Z,15.48
2023-04-30T20:30:58.888Z,15.44
2023-04-30T20:33:28.714Z,15.41
2023-04-30T20:35:58.104Z,15.38
2023-04-30T20:38:27.416Z,15.32
2023-04-30T20:40:55.380Z,15.28
2023-04-30T20:43:23.105Z,15.23
2023-04-30T20:45:50.811Z,15.22
2023-04-30T20:48:18.804Z,15.18
2023-04-30T20:50:46.865Z,15.14
2023-04-30T20:53:15.334Z,15.12
2023-04-30T20:55:44.502Z,15.10
2023-04-30T20:58:14.679Z,15.10
2023-04-30T21:00:42.474Z,15.06
2023-04-30T21:03:10.542Z,15.06
2023-04-30T21:05:38.497Z,15.05
2023-04-30T21:08:06.254Z,15.02
2023-04-30T21:10:36.831Z,15.02
2023-04-30T21:13:11.238Z,14.99
2023-04-30T21:15:40.966Z,14.83
2023-04-30T21:18:09.267Z,14.99
2023-04-30T21:20:37.498Z,14.98
2023-04-30T21:23:08.185Z,14.97
2023-04-30T21:25:37.335Z,14.92
2023-04-30T21:28:07.124Z,14.82
2023-04-30T21:30:36.589Z,14.88
2023-04-30T21:33:04.713Z,14.84
2023-04-30T21:35:34.061Z,14.78
2023-04-30T21:38:01.859Z,14.75
2023-04-30T21:40:33.659Z,14.71
2023-04-30T21:43:01.771Z,14.67
2023-04-30T21:45:32.634Z,14.63
2023-04-30T21:48:00.531Z,14.57
2023-04-30T21:50:28.581Z,14.56
2023-04-30T21:52:58.658Z,14.52
2023-04-30T21:55:27.413Z,14.54
2023-04-30T21:57:56.112Z,14.45
2023-04-30T22:00:24.508Z,14.49
2023-04-30T22:02:53.823Z,14.43
2023-04-30T22:05:21.953Z,14.39
2023-04-30T22:07:49.833Z,14.40
2023-04-30T22:10:34.542Z,14.37
2023-04-30T22:13:02.459Z,14.37
2023-04-30T22:15:47.137Z,14.20
2023-04-30T22:18:20.927Z,14.19
2023-04-30T22:20:49.871Z,14.25
2023-04-30T22:23:21.101Z,14.19
2023-04-30T22:25:50.391Z,14.18
2023-04-30T22:28:19.383Z,14.16
2023-04-30T22:30:48.156Z,14.13
2023-04-30T22:33:16.139Z,14.10
2023-04-30T22:35:46.837Z,14.11
2023-04-30T22:38:14.698Z,14.09
2023-04-30T22:40:42.777Z,14.08
2023-04-30T22:43:11.025Z,14.08
2023-04-30T22:45:40.482Z,14.09
2023-04-30T22:48:10.656Z,14.01
2023-04-30T22:50:39.327Z,14.00
2023-04-30T22:53:08.679Z,14.06
2023-04-30T22:55:38.880Z,14.04
2023-04-30T22:58:06.696Z,14.04
2023-04-30T23:00:34.689Z,14.00
2023-04-30T23:03:02.509Z,13.89
2023-04-30T23:05:30.390Z,14.02
2023-04-30T23:07:58.186Z,13.99
2023-04-30T23:10:30.620Z,13.98
2023-04-30T23:12:58.983Z,13.96
2023-04-30T23:15:29.443Z,13.97
2023-04-30T23:17:58.232Z,13.97
2023-04-30T23:20:26.473Z,13.99
2023-04-30T23:22:54.166Z,13.97
2023-04-30T23:25:26.859Z,13.95
2023-04-30T23:27:59.561Z,13.96
2023-04-30T23:30:38.304Z,13.95
2023-04-30T23:33:06.101Z,13.96
2023-04-30T23:35:34.170Z,13.88
2023-04-30T23:38:01.846Z,13.94
2023-04-30T23:40:32.637Z,13.96
2023-04-30T23:43:02.095Z,14.00
2023-04-30T23:45:29.842Z,14.04
2023-04-30T23:47:57.657Z,14.07
2023-04-30T23:50:25.821Z,14.08
2023-04-30T23:52:55.882Z,14.05
2023-04-30T23:55:23.598Z,14.11
2023-04-30T23:57:51.369Z,14.13
